createdAt,value
2022-12-11T00:00:31.686Z,63.40
2022-12-11T00:02:59.426Z,65.55
2022-12-11T00:05:27.119Z,61.72
2022-12-11T00:07:56.491Z,65.05
2022-12-11T00:10:25.853Z,67.00
2022-12-11T00:12:53.573Z,59.92
2022-12-11T00:15:21.314Z,63.15
2022-12-11T00:17:49.103Z,58.20
2022-12-11T00:20:17.188Z,60.55
2022-12-11T00:22:44.874Z,60.75
2022-12-11T00:25:12.859Z,61.05
2022-12-11T00:27:42.094Z,62.03
2022-12-11T00:30:10.979Z,63.38
2022-12-11T00:32:38.667Z,67.95
2022-12-11T00:35:06.858Z,69.03
2022-12-11T00:37:34.584Z,65.18
2022-12-11T00:40:02.385Z,63.65
2022-12-11T00:42:30.123Z,61.95
2022-12-11T00:44:59.165Z,59.60
2022-12-11T00:47:29.466Z,59.38
2022-12-11T00:50:00.314Z,55.22
2022-12-11T00:52:28.001Z,52.28
2022-12-11T00:54:55.643Z,58.78
2022-12-11T00:57:23.964Z,51.20
2022-12-11T00:59:51.635Z,55.50
2022-12-11T01:02:20.681Z,53.15
2022-12-11T01:04:48.341Z,54.60
2022-12-11T01:07:16.009Z,55.17
2022-12-11T01:10:01.084Z,55.50
2022-12-11T01:12:28.808Z,53.13
2022-12-11T01:14:56.535Z,54.03
2022-12-11T01:17:25.592Z,53.22
2022-12-11T01:19:54.657Z,59.70
2022-12-11T01:22:22.534Z,54.30
2022-12-11T01:24:50.226Z,53.63
2022-12-11T01:27:18.420Z,49.95
2022-12-11T01:29:48.691Z,53.05
2022-12-11T01:32:16.472Z,57.58
2022-12-11T01:34:45.531Z,54.33
2022-12-11T01:37:15.897Z,56.83
2022-12-11T01:39:43.600Z,54.42
2022-12-11T01:42:17.447Z,51.33
2022-12-11T01:45:27.923Z,54.65
2022-12-11T01:48:03.810Z,50.25
2022-12-11T01:50:36.005Z,55.00
2022-12-11T01:53:06.993Z,54.13
2022-12-11T01:55:35.556Z,55.25
2022-12-11T01:58:03.788Z,51.88
2022-12-11T02:00:31.503Z,49.10
2022-12-11T02:02:59.233Z,50.10
2022-12-11T02:05:28.726Z,48.13
2022-12-11T02:08:02.503Z,45.20
2022-12-11T02:10:42.780Z,49.65
2022-12-11T02:13:16.210Z,51.25
2022-12-11T02:15:50.944Z,46.95
2022-12-11T02:18:26.471Z,45.90
2022-12-11T02:20:59.823Z,44.38
2022-12-11T02:23:45.654Z,48.75
2022-12-11T02:26:26.026Z,44.88
2022-12-11T02:28:58.419Z,49.38
2022-12-11T02:31:33.395Z,47.28
2022-12-11T02:34:09.198Z,49.13
2022-12-11T02:36:41.175Z,43.58
2022-12-11T02:39:13.403Z,44.92
2022-12-11T02:41:44.026Z,47.08
2022-12-11T02:44:17.214Z,44.50
2022-12-11T02:46:45.847Z,44.15
2022-12-11T02:49:16.542Z,48.00
2022-12-11T02:51:45.268Z,42.90
2022-12-11T02:54:17.429Z,44.33
2022-12-11T02:56:52.239Z,46.50
2022-12-11T02:59:25.273Z,42.88
2022-12-11T03:01:53.190Z,42.83
2022-12-11T03:04:24.788Z,47.08
2022-12-11T03:06:55.408Z,40.65
2022-12-11T03:09:23.325Z,42.33
2022-12-11T03:11:51.007Z,40.78
2022-12-11T03:14:18.893Z,41.13
2022-12-11T03:16:59.745Z,38.83
2022-12-11T03:19:33.101Z,40.60
2022-12-11T03:22:09.734Z,41.10
2022-12-11T03:24:42.206Z,45.17
2022-12-11T03:27:20.705Z,42.20
2022-12-11T03:29:54.522Z,40.58
2022-12-11T03:32:29.642Z,42.95
2022-12-11T03:35:01.697Z,42.30
2022-12-11T03:37:33.510Z,40.13
2022-12-11T03:40:06.987Z,39.40
2022-12-11T03:42:36.448Z,45.20
2022-12-11T03:45:08.655Z,39.25
2022-12-11T03:47:42.460Z,39.92
2022-12-11T03:50:12.409Z,37.58
2022-12-11T03:52:45.759Z,40.50
2022-12-11T03:55:18.518Z,42.03
2022-12-11T03:57:46.609Z,36.63
2022-12-11T04:00:18.061Z,35.20
2022-12-11T04:03:13.246Z,38.22
2022-12-11T04:05:42.701Z,39.40
2022-12-11T04:08:11.180Z,38.80
2022-12-11T04:13:25.093Z,38.72
2022-12-11T04:15:51.840Z,37.60
2022-12-11T04:18:46.841Z,34.85
2022-12-11T04:21:36.409Z,40.42
2022-12-11T04:24:16.564Z,37.60
2022-12-11T04:26:44.532Z,37.42
2022-12-11T04:29:12.654Z,37.28
2022-12-11T04:31:40.895Z,36.95
2022-12-11T04:34:10.194Z,34.70
2022-12-11T04:36:38.079Z,38.72
2022-12-11T04:39:06.894Z,39.15
2022-12-11T04:41:35.129Z,37.40
2022-12-11T04:44:03.080Z,37.05
2022-12-11T04:46:30.856Z,42.42
2022-12-11T04:49:00.215Z,39.83
2022-12-11T04:51:32.542Z,39.92
2022-12-11T04:54:00.490Z,39.17
2022-12-11T04:56:28.332Z,39.90
2022-12-11T04:58:55.984Z,39.30
2022-12-11T05:01:25.684Z,39.42
2022-12-11T05:03:54.930Z,41.40
2022-12-11T05:06:22.673Z,41.00
2022-12-11T05:08:51.800Z,39.72
2022-12-11T05:11:19.565Z,43.42
2022-12-11T05:13:47.900Z,43.80
2022-12-11T05:16:17.766Z,39.50
2022-12-11T05:18:47.414Z,40.63
2022-12-11T05:21:16.266Z,42.85
2022-12-11T05:23:44.056Z,41.15
2022-12-11T05:26:16.055Z,43.33
2022-12-11T05:28:45.093Z,39.35
2022-12-11T05:31:17.786Z,42.55
2022-12-11T05:33:45.723Z,42.63
2022-12-11T05:36:17.745Z,36.35
2022-12-11T05:38:45.519Z,39.22
2022-12-11T05:41:17.880Z,37.65
2022-12-11T05:43:49.166Z,36.08
2022-12-11T05:46:18.891Z,39.42
2022-12-11T05:48:48.647Z,36.63
2022-12-11T05:51:18.125Z,37.05
2022-12-11T05:53:47.611Z,32.75
2022-12-11T05:56:18.786Z,33.55
2022-12-11T05:58:50.980Z,31.67
2022-12-11T06:01:23.083Z,33.08
2022-12-11T06:03:54.349Z,35.13
2022-12-11T06:06:22.156Z,32.47
2022-12-11T06:08:51.019Z,35.00
2022-12-11T06:11:23.987Z,30.33
2022-12-11T06:13:52.652Z,33.15
2022-12-11T06:16:21.082Z,32.45
2022-12-11T06:18:49.081Z,32.80
2022-12-11T06:21:19.398Z,31.38
2022-12-11T06:23:48.979Z,31.08
2022-12-11T06:26:17.738Z,34.97
2022-12-11T06:28:47.654Z,36.78
2022-12-11T06:31:18.335Z,33.92
2022-12-11T06:33:46.210Z,35.13
2022-12-11T06:36:16.473Z,35.97
2022-12-11T06:38:47.691Z,40.95
2022-12-11T06:41:16.301Z,36.35
2022-12-11T06:43:44.260Z,37.03
2022-12-11T06:46:15.366Z,38.42
2022-12-11T06:48:43.655Z,37.00
2022-12-11T06:51:13.985Z,37.92
2022-12-11T06:53:44.193Z,40.83
2022-12-11T06:56:14.107Z,40.90
2022-12-11T06:58:44.304Z,40.90
2022-12-11T07:01:18.588Z,40.10
2022-12-11T07:03:46.926Z,39.90
2022-12-11T07:06:15.447Z,40.95
2022-12-11T07:08:43.629Z,40.90
2022-12-11T07:11:13.718Z,39.55
2022-12-11T07:13:42.460Z,37.33
2022-12-11T07:16:12.594Z,42.85
2022-12-11T07:18:43.180Z,45.50
2022-12-11T07:21:12.889Z,46.20
2022-12-11T07:23:41.165Z,44.55
2022-12-11T07:26:14.275Z,42.28
2022-12-11T07:28:42.849Z,39.03
2022-12-11T07:31:13.538Z,40.03
2022-12-11T07:33:43.223Z,39.88
2022-12-11T07:36:14.005Z,38.13
2022-12-11T07:38:42.039Z,38.72
2022-12-11T07:41:15.733Z,43.72
2022-12-11T07:43:44.108Z,39.25
2022-12-11T07:46:14.483Z,40.45
2022-12-11T07:48:45.020Z,37.40
2022-12-11T07:51:14.997Z,36.40
2022-12-11T07:53:48.429Z,39.45
2022-12-11T07:56:16.691Z,38.58
2022-12-11T07:58:44.482Z,34.35
2022-12-11T08:01:15.935Z,40.25
2022-12-11T08:03:46.730Z,42.13
2022-12-11T08:06:14.799Z,33.50
2022-12-11T08:08:43.195Z,37.72
2022-12-11T08:11:14.112Z,39.20
2022-12-11T08:13:42.841Z,39.53
2022-12-11T08:16:15.950Z,37.85
2022-12-11T08:18:47.135Z,39.45
2022-12-11T08:21:16.512Z,38.50
2022-12-11T08:23:44.826Z,38.58
2022-12-11T08:26:15.039Z,37.83
2022-12-11T08:28:43.081Z,37.40
2022-12-11T08:31:12.522Z,35.00
2022-12-11T08:33:41.782Z,37.10
2022-12-11T08:36:13.990Z,35.92
2022-12-11T08:38:43.453Z,34.67
2022-12-11T08:41:12.285Z,36.75
2022-12-11T08:43:40.109Z,33.88
2022-12-11T08:46:08.594Z,32.08
2022-12-11T08:48:36.679Z,36.65
2022-12-11T08:51:08.105Z,36.72
2022-12-11T08:53:37.296Z,35.78
2022-12-11T08:56:06.933Z,32.47
2022-12-11T08:58:34.735Z,35.15
2022-12-11T09:01:08.174Z,31.88
2022-12-11T09:03:39.883Z,30.40
2022-12-11T09:06:10.971Z,34.80
2022-12-11T09:08:47.222Z,31.52
2022-12-11T09:11:21.237Z,29.92
2022-12-11T09:13:50.107Z,31.08
2022-12-11T09:16:21.516Z,29.70
2022-12-11T09:18:51.059Z,28.35
2022-12-11T09:21:21.083Z,29.30
2022-12-11T09:23:50.298Z,24.95
2022-12-11T09:26:20.050Z,26.25
2022-12-11T09:28:48.264Z,25.98
2022-12-11T09:31:18.024Z,25.38
2022-12-11T09:33:46.371Z,22.58
2022-12-11T09:36:14.236Z,23.58
2022-12-11T09:38:43.401Z,25.85
2022-12-11T09:41:30.635Z,27.13
2022-12-11T09:44:06.761Z,21.55
2022-12-11T09:46:36.686Z,19.35
2022-12-11T09:49:13.427Z,21.25
2022-12-11T09:51:45.329Z,22.55
2022-12-11T09:54:15.217Z,23.23
2022-12-11T09:56:52.524Z,21.70
2022-12-11T09:59:24.857Z,17.92
2022-12-11T10:02:00.099Z,21.83
2022-12-11T10:04:40.882Z,18.52
2022-12-11T10:07:17.013Z,22.08
2022-12-11T10:09:51.269Z,19.38
2022-12-11T10:12:31.500Z,19.42
2022-12-11T10:15:20.716Z,19.15
2022-12-11T10:17:49.096Z,20.67
2022-12-11T10:20:23.314Z,20.15
2022-12-11T10:22:52.968Z,19.60
2022-12-11T10:25:22.960Z,16.92
2022-12-11T10:27:52.317Z,19.88
2022-12-11T10:30:21.792Z,16.60
2022-12-11T10:32:55.343Z,18.63
2022-12-11T10:35:33.120Z,22.88
2022-12-11T10:38:11.837Z,20.40
2022-12-11T10:40:41.052Z,18.02
2022-12-11T10:43:10.622Z,18.70
2022-12-11T10:45:38.545Z,21.15
2022-12-11T10:48:08.790Z,20.05
2022-12-11T10:50:36.890Z,19.02
2022-12-11T10:53:04.740Z,18.90
2022-12-11T10:55:41.698Z,17.23
2022-12-11T10:58:19.687Z,17.98
2022-12-11T11:00:47.866Z,20.90
2022-12-11T11:03:23.865Z,18.80
2022-12-11T11:06:02.425Z,18.38
2022-12-11T11:08:39.947Z,17.30
2022-12-11T11:11:17.198Z,18.60
2022-12-11T11:13:48.505Z,15.85
2022-12-11T11:16:18.567Z,17.50
2022-12-11T11:18:57.062Z,18.38
2022-12-11T11:21:28.383Z,16.05
2022-12-11T11:23:56.128Z,26.23
2022-12-11T11:26:30.679Z,24.75
2022-12-11T11:29:08.043Z,19.83
2022-12-11T11:31:36.765Z,19.23
2022-12-11T11:34:12.953Z,19.27
2022-12-11T11:36:40.643Z,18.83
2022-12-11T11:39:20.861Z,20.58
2022-12-11T11:41:53.471Z,19.67
2022-12-11T11:44:29.970Z,20.50
2022-12-11T11:47:02.109Z,22.10
2022-12-11T11:49:46.500Z,20.30
2022-12-11T11:52:19.315Z,19.77
2022-12-11T11:54:53.999Z,18.55
2022-12-11T11:57:30.345Z,23.10
2022-12-11T12:00:10.786Z,26.63
2022-12-11T12:02:38.832Z,23.92
2022-12-11T12:05:07.229Z,19.02
2022-12-11T12:07:41.556Z,17.70
2022-12-11T12:10:21.924Z,17.42
2022-12-11T12:12:59.524Z,20.00
2022-12-11T12:15:39.854Z,15.20
2022-12-11T12:18:16.540Z,15.30
2022-12-11T12:20:53.523Z,19.20
2022-12-11T12:23:37.078Z,17.75
2022-12-11T12:26:14.111Z,19.60
2022-12-11T12:28:49.034Z,16.67
2022-12-11T12:31:31.506Z,15.07
2022-12-11T12:34:07.761Z,18.88
2022-12-11T12:36:46.878Z,17.27
2022-12-11T12:39:29.674Z,15.75
2022-12-11T12:42:07.754Z,16.40
2022-12-11T12:44:43.488Z,15.38
2022-12-11T12:47:16.309Z,16.48
2022-12-11T12:49:46.652Z,17.00
2022-12-11T12:52:17.857Z,13.82
2022-12-11T12:55:07.139Z,15.13
2022-12-11T12:57:39.650Z,13.15
2022-12-11T13:00:13.198Z,14.35
2022-12-11T13:02:51.688Z,15.82
2022-12-11T13:05:23.587Z,17.13
2022-12-11T13:07:54.720Z,13.43
2022-12-11T13:10:32.909Z,15.57
2022-12-11T13:13:02.255Z,16.63
2022-12-11T13:15:38.985Z,14.60
2022-12-11T13:18:33.263Z,18.20
2022-12-11T13:21:00.986Z,16.08
2022-12-11T13:23:31.063Z,17.00
2022-12-11T13:26:00.219Z,15.73
2022-12-11T13:28:31.591Z,14.85
2022-12-11T13:31:04.194Z,15.80
2022-12-11T13:33:34.475Z,12.90
2022-12-11T13:36:25.012Z,16.63
2022-12-11T13:38:59.190Z,17.90
2022-12-11T13:41:28.555Z,14.57
2022-12-11T13:43:58.884Z,17.45
2022-12-11T13:46:29.245Z,17.25
2022-12-11T13:49:03.088Z,19.50
2022-12-11T13:51:35.009Z,19.65
2022-12-11T13:54:20.486Z,16.60
2022-12-11T13:56:59.999Z,19.65
2022-12-11T13:59:30.572Z,27.55
2022-12-11T14:02:02.259Z,17.15
2022-12-11T14:04:32.764Z,20.60
2022-12-11T14:07:00.547Z,15.60
2022-12-11T14:09:29.512Z,16.17
2022-12-11T14:12:00.105Z,17.63
2022-12-11T14:14:36.899Z,16.35
2022-12-11T14:17:05.133Z,16.02
2022-12-11T14:19:34.499Z,16.70
2022-12-11T14:22:04.169Z,17.45
2022-12-11T14:24:32.652Z,15.68
2022-12-11T14:27:01.244Z,17.23
2022-12-11T14:29:31.026Z,19.42
2022-12-11T14:32:03.839Z,16.55
2022-12-11T14:34:36.041Z,16.92
2022-12-11T14:37:07.113Z,17.05
2022-12-11T14:39:39.542Z,15.45
2022-12-11T14:42:11.943Z,17.05
2022-12-11T14:44:48.980Z,20.17
2022-12-11T14:47:20.848Z,18.23
2022-12-11T14:49:54.245Z,20.35
2022-12-11T14:52:26.272Z,19.90
2022-12-11T14:54:57.963Z,16.35
2022-12-11T14:57:30.412Z,17.45
2022-12-11T15:00:00.581Z,15.60
2022-12-11T15:02:32.485Z,15.60
2022-12-11T15:05:18.042Z,18.63
2022-12-11T15:07:56.620Z,19.10
2022-12-11T15:10:27.690Z,17.98
2022-12-11T15:12:58.866Z,17.80
2022-12-11T15:15:28.963Z,20.58
2022-12-11T15:18:03.100Z,19.13
2022-12-11T15:20:32.332Z,20.05
2022-12-11T15:23:02.748Z,18.10
2022-12-11T15:25:32.546Z,20.55
2022-12-11T15:28:02.197Z,22.55
2022-12-11T15:30:35.809Z,22.45
2022-12-11T15:33:05.950Z,24.77
2022-12-11T15:35:35.031Z,23.25
2022-12-11T15:38:02.785Z,23.55
2022-12-11T15:40:31.070Z,22.98
2022-12-11T15:43:03.223Z,24.67
2022-12-11T15:45:30.964Z,40.35
2022-12-11T15:47:59.511Z,33.35
2022-12-11T15:50:28.608Z,36.13
2022-12-11T15:52:58.268Z,42.60
2022-12-11T15:55:29.692Z,34.97
2022-12-11T15:58:01.780Z,38.25
2022-12-11T16:00:29.523Z,33.10
2022-12-11T16:02:58.184Z,39.65
2022-12-11T16:05:28.771Z,43.63
2022-12-11T16:07:59.634Z,41.35
2022-12-11T16:10:28.232Z,40.38
2022-12-11T16:12:59.482Z,44.13
2022-12-11T16:15:27.858Z,44.08
2022-12-11T16:18:03.170Z,46.90
2022-12-11T16:23:01.249Z,31.15
2022-12-11T16:25:29.375Z,31.15
2022-12-11T16:28:01.254Z,34.42
2022-12-11T16:30:30.456Z,35.03
2022-12-11T16:32:58.361Z,35.85
2022-12-11T16:35:26.098Z,30.75
2022-12-11T16:37:55.384Z,34.60
2022-12-11T16:40:24.955Z,36.08
2022-12-11T16:42:52.882Z,37.38
2022-12-11T16:45:23.069Z,34.25
2022-12-11T16:47:50.798Z,40.03
2022-12-11T16:50:19.158Z,46.22
2022-12-11T16:52:47.213Z,43.13
2022-12-11T16:55:15.626Z,40.17
2022-12-11T16:57:47.261Z,43.22
2022-12-11T17:00:15.641Z,40.78
2022-12-11T17:02:43.459Z,36.28
2022-12-11T17:05:11.536Z,39.78
2022-12-11T17:07:40.355Z,40.63
2022-12-11T17:10:07.562Z,41.60
2022-12-11T17:12:35.519Z,44.72
2022-12-11T17:15:05.115Z,35.78
2022-12-11T17:17:33.061Z,33.88
2022-12-11T17:20:01.090Z,31.58
2022-12-11T17:22:28.978Z,37.95
2022-12-11T17:24:56.948Z,30.58
2022-12-11T17:27:24.890Z,35.45
2022-12-11T17:29:52.752Z,39.25
2022-12-11T17:32:22.117Z,39.00
2022-12-11T17:34:50.490Z,32.53
2022-12-11T17:37:18.682Z,37.67
2022-12-11T17:39:47.562Z,30.50
2022-12-11T17:42:15.517Z,35.83
2022-12-11T17:44:45.438Z,34.58
2022-12-11T17:47:13.432Z,29.30
2022-12-11T17:49:42.835Z,28.27
2022-12-11T17:52:10.877Z,30.17
2022-12-11T17:54:39.260Z,29.63
2022-12-11T17:57:07.609Z,30.42
2022-12-11T17:59:35.726Z,28.40
2022-12-11T18:02:03.837Z,29.90
2022-12-11T18:04:31.856Z,26.50
2022-12-11T18:07:01.395Z,28.27
2022-12-11T18:09:29.475Z,27.30
2022-12-11T18:11:57.321Z,27.50
2022-12-11T18:14:25.597Z,30.60
2022-12-11T18:16:53.710Z,27.42
2022-12-11T18:19:22.900Z,29.08
2022-12-11T18:21:51.213Z,31.15
2022-12-11T18:24:21.521Z,30.10
2022-12-11T18:26:49.752Z,32.83
2022-12-11T18:29:17.793Z,32.45
2022-12-11T18:31:45.717Z,31.35
2022-12-11T18:34:13.535Z,31.45
2022-12-11T18:36:41.863Z,30.85
2022-12-11T18:39:10.566Z,32.17
2022-12-11T18:41:39.933Z,34.17
2022-12-11T18:44:09.937Z,28.58
2022-12-11T18:46:39.384Z,29.05
2022-12-11T18:49:07.522Z,30.52
2022-12-11T18:51:35.938Z,31.27
2022-12-11T18:54:04.245Z,35.17
2022-12-11T18:56:32.056Z,35.65
2022-12-11T18:59:01.228Z,29.80
2022-12-11T19:01:30.134Z,32.10
2022-12-11T19:04:04.253Z,29.10
2022-12-11T19:09:04.442Z,32.72
2022-12-11T19:11:33.429Z,33.67
2022-12-11T19:14:02.555Z,33.65
2022-12-11T19:16:33.597Z,33.60
2022-12-11T19:19:03.114Z,39.17
2022-12-11T19:21:31.647Z,34.80
2022-12-11T19:23:59.675Z,33.58
2022-12-11T19:26:27.791Z,27.52
2022-12-11T19:28:56.944Z,39.33
2022-12-11T19:31:26.053Z,35.00
2022-12-11T19:33:54.267Z,32.17
2022-12-11T19:36:25.056Z,34.63
2022-12-11T19:38:59.302Z,27.58
2022-12-11T19:41:29.696Z,29.85
2022-12-11T19:44:00.697Z,32.15
2022-12-11T19:46:30.677Z,35.83
2022-12-11T19:48:59.940Z,34.00
2022-12-11T19:51:30.156Z,31.02
2022-12-11T19:53:58.406Z,27.20
2022-12-11T19:56:26.484Z,29.20
2022-12-11T19:58:54.368Z,32.22
2022-12-11T20:01:25.722Z,29.38
2022-12-11T20:03:56.660Z,28.95
2022-12-11T20:06:25.149Z,36.17
2022-12-11T20:08:53.161Z,36.00
2022-12-11T20:11:21.058Z,46.35
2022-12-11T20:13:49.413Z,32.47
2022-12-11T20:16:28.849Z,32.83
2022-12-11T20:19:08.412Z,39.38
2022-12-11T20:21:36.230Z,34.80
2022-12-11T20:24:04.450Z,37.92
2022-12-11T20:26:36.006Z,34.63
2022-12-11T20:29:07.225Z,37.92
2022-12-11T20:31:36.681Z,37.22
2022-12-11T20:34:05.466Z,38.88
2022-12-11T20:36:35.258Z,38.72
2022-12-11T20:39:03.172Z,38.38
2022-12-11T20:41:30.950Z,33.92
2022-12-11T20:43:59.363Z,36.90
2022-12-11T20:46:28.313Z,36.15
2022-12-11T20:48:58.469Z,33.42
2022-12-11T20:51:26.790Z,39.03
2022-12-11T20:53:59.353Z,36.50
2022-12-11T20:56:29.520Z,33.17
2022-12-11T20:58:58.222Z,38.33
2022-12-11T21:01:28.159Z,35.03
2022-12-11T21:03:56.354Z,35.47
2022-12-11T21:06:26.477Z,37.40
2022-12-11T21:08:55.884Z,39.17
2022-12-11T21:11:23.846Z,32.05
2022-12-11T21:13:52.021Z,34.58
2022-12-11T21:16:20.646Z,30.75
2022-12-11T21:18:48.549Z,33.78
2022-12-11T21:21:16.902Z,30.15
2022-12-11T21:23:45.021Z,27.83
2022-12-11T21:26:15.456Z,35.38
2022-12-11T21:28:43.538Z,34.97
2022-12-11T21:31:14.605Z,37.45
2022-12-11T21:33:42.517Z,32.40
2022-12-11T21:36:13.133Z,29.40
2022-12-11T21:38:44.636Z,32.65
2022-12-11T21:41:15.797Z,30.30
2022-12-11T21:44:14.532Z,28.85
2022-12-11T21:46:32.213Z,24.95
2022-12-11T21:49:03.118Z,32.63
2022-12-11T21:51:36.931Z,27.73
2022-12-11T21:54:10.226Z,32.13
2022-12-11T21:56:39.317Z,43.17
2022-12-11T21:59:07.518Z,44.22
2022-12-11T22:01:38.206Z,30.27
2022-12-11T22:04:06.751Z,30.00
2022-12-11T22:06:34.838Z,27.15
2022-12-11T22:09:02.751Z,28.42
2022-12-11T22:11:33.295Z,29.73
2022-12-11T22:14:03.332Z,28.88
2022-12-11T22:16:38.935Z,26.73
2022-12-11T22:19:06.723Z,28.83
2022-12-11T22:21:34.748Z,25.95
2022-12-11T22:24:02.529Z,27.67
2022-12-11T22:26:30.621Z,27.00
2022-12-11T22:28:59.009Z,30.23
2022-12-11T22:31:28.727Z,27.83
2022-12-11T22:33:57.175Z,35.70
2022-12-11T22:36:26.630Z,42.15
2022-12-11T22:38:54.960Z,41.70
2022-12-11T22:41:26.573Z,45.08
2022-12-11T22:43:54.991Z,46.50
2022-12-11T22:46:25.303Z,44.80
2022-12-11T22:48:54.802Z,37.20
2022-12-11T22:51:23.938Z,47.45
2022-12-11T22:53:52.000Z,36.70
2022-12-11T22:56:19.761Z,47.40
2022-12-11T23:03:14.112Z,52.33
2022-12-11T23:05:43.242Z,54.45
2022-12-11T23:08:11.092Z,47.85
2022-12-11T23:10:40.411Z,43.30
2022-12-11T23:13:08.176Z,47.58
2022-12-11T23:15:35.958Z,37.83
2022-12-11T23:18:03.825Z,36.25
2022-12-11T23:20:32.898Z,36.13
2022-12-11T23:23:00.618Z,38.13
2022-12-11T23:25:28.932Z,41.78
2022-12-11T23:27:56.706Z,38.97
2022-12-11T23:30:24.974Z,31.05
2022-12-11T23:32:52.715Z,33.45
2022-12-11T23:35:20.418Z,29.60
2022-12-11T23:37:49.484Z,28.70
2022-12-11T23:40:17.332Z,30.55
2022-12-11T23:42:44.985Z,34.38
2022-12-11T23:45:12.915Z,30.95
2022-12-11T23:47:40.734Z,30.83
2022-12-11T23:50:10.867Z,28.25
2022-12-11T23:52:41.470Z,32.58
2022-12-11T23:55:12.096Z,36.45
2022-12-11T23:57:39.972Z,30.77
